Time;durP1;ratioP1;P1;durP2;ratioP2;P2;SDS_P1;SDS_P2;PMS_P1;PMS_P2;Temp;Humidity;BMP_temperature;BMP_pressure;BME280_temperature;BME280_humidity;BME280_pressure;Samples;Min_cycle;Max_cycle;Signal;HPM_P1;HPM_P2
2022/04/02 00:06:33;;;;;;;1.50;0.40;;;4.00;99.90;;;;;;20695683;28;20641;-46
2022/04/02 00:16:34;;;;;;;1.45;0.50;;;4.00;99.90;;;;;;20706644;28;20042;-45
2022/04/02 00:26:35;;;;;;;0.98;0.40;;;4.10;99.90;;;;;;20705854;28;20046;-44
2022/04/02 00:36:37;;;;;;;1.17;0.55;;;4.10;99.90;;;;;;20703003;28;20165;-45
2022/04/02 00:46:41;;;;;;;2.05;0.40;;;4.10;99.90;;;;;;20705868;28;20497;-45
2022/04/02 00:56:43;;;;;;;1.73;0.38;;;4.00;99.90;;;;;;20704091;28;20065;-45
2022/04/02 01:06:45;;;;;;;2.03;0.60;;;3.90;99.90;;;;;;20702458;28;20069;-45
2022/04/02 01:16:46;;;;;;;1.70;0.50;;;3.80;99.90;;;;;;20704570;28;20096;-45
2022/04/02 01:26:48;;;;;;;0.88;0.32;;;3.90;99.90;;;;;;20701575;28;20050;-45
2022/04/02 01:36:49;;;;;;;0.70;0.30;;;3.70;99.90;;;;;;20701788;28;20045;-45
2022/04/02 01:46:50;;;;;;;1.42;0.35;;;3.70;99.90;;;;;;20701041;28;20048;-45
2022/04/02 01:56:51;;;;;;;1.15;0.40;;;3.60;99.90;;;;;;20697237;28;20524;-45
2022/04/02 02:06:54;;;;;;;1.17;0.45;;;3.50;99.90;;;;;;20698803;28;20042;-45
2022/04/02 02:16:56;;;;;;;0.88;0.35;;;3.50;99.90;;;;;;20698171;28;20042;-45
2022/04/02 02:26:57;;;;;;;1.10;0.60;;;3.40;99.90;;;;;;20696529;28;20060;-44
2022/04/02 02:36:58;;;;;;;1.67;0.32;;;3.40;99.90;;;;;;20695615;28;20405;-45
2022/04/02 02:46:59;;;;;;;0.77;0.30;;;3.40;99.90;;;;;;20699544;28;20069;-45
2022/04/02 02:57:00;;;;;;;4.32;0.40;;;3.40;99.90;;;;;;20699088;28;20885;-45
2022/04/02 03:07:01;;;;;;;2.65;0.38;;;3.40;99.90;;;;;;20692793;28;20506;-45
2022/04/02 03:17:02;;;;;;;1.08;0.30;;;3.20;99.90;;;;;;20699045;28;20049;-45
2022/04/02 03:27:04;;;;;;;1.23;0.47;;;3.00;99.90;;;;;;20693458;28;20038;-45
2022/04/02 03:37:05;;;;;;;0.85;0.10;;;2.80;99.90;;;;;;20694790;28;20050;-45
2022/04/02 03:47:09;;;;;;;0.93;0.40;;;2.70;99.90;;;;;;20701175;28;20402;-45
2022/04/02 03:57:13;;;;;;;1.35;0.40;;;2.60;99.90;;;;;;20711021;28;20053;-45
2022/04/02 04:07:14;;;;;;;5.78;0.40;;;2.70;99.90;;;;;;20712470;28;20041;-45
2022/04/02 04:17:16;;;;;;;5.05;0.60;;;2.70;99.90;;;;;;20709353;28;20518;-45
2022/04/02 04:27:16;;;;;;;1.38;0.38;;;2.70;99.90;;;;;;20706874;28;20041;-45
2022/04/02 04:37:18;;;;;;;2.53;1.02;;;2.70;99.90;;;;;;20707909;28;20046;-45
2022/04/02 04:47:19;;;;;;;1.88;0.40;;;2.60;99.90;;;;;;20702265;28;20038;-45
2022/04/02 04:57:20;;;;;;;2.40;0.50;;;2.60;99.90;;;;;;20703134;28;20054;-45
2022/04/02 05:07:22;;;;;;;0.88;0.55;;;2.50;99.90;;;;;;20707463;28;20057;-45
2022/04/02 05:17:23;;;;;;;1.98;0.55;;;2.60;99.90;;;;;;20703501;28;20425;-45
2022/04/02 05:27:24;;;;;;;0.90;0.40;;;2.50;99.90;;;;;;20703142;28;20053;-45
2022/04/02 05:37:26;;;;;;;1.40;0.85;;;2.60;99.90;;;;;;20703287;28;20049;-46
2022/04/02 05:47:27;;;;;;;2.95;0.80;;;2.60;99.90;;;;;;20700897;28;20053;-45
2022/04/02 05:57:28;;;;;;;2.70;0.50;;;2.60;99.90;;;;;;20699830;28;20053;-45
2022/04/02 06:07:30;;;;;;;5.18;0.70;;;2.70;99.90;;;;;;20698171;28;20046;-45
2022/04/02 06:17:31;;;;;;;4.57;1.33;;;2.70;99.90;;;;;;20697459;28;20041;-45
2022/04/02 06:27:48;;;;;;;4.85;0.50;;;2.80;99.90;;;;;;20700163;28;20038;-45
2022/04/02 06:37:50;;;;;;;3.30;0.80;;;2.90;99.90;;;;;;20703088;28;20391;-45
2022/04/02 06:47:51;;;;;;;2.20;0.65;;;2.80;99.90;;;;;;20705878;28;20976;-45
2022/04/02 06:57:57;;;;;;;3.53;0.73;;;3.00;99.90;;;;;;20699415;28;20053;-45
2022/04/02 07:07:58;;;;;;;1.67;0.53;;;3.20;99.90;;;;;;20702791;28;20042;-45
2022/04/02 07:18:06;;;;;;;3.08;0.75;;;3.50;99.90;;;;;;20694042;28;20061;-45
2022/04/02 07:28:07;;;;;;;1.63;0.82;;;4.00;99.90;;;;;;20726038;28;20041;-45
2022/04/02 07:38:20;;;;;;;4.15;0.73;;;4.30;99.90;;;;;;20762502;28;20053;-45
2022/04/02 07:48:25;;;;;;;1.50;0.40;;;4.60;99.90;;;;;;20768566;28;20046;-45
2022/04/02 07:58:31;;;;;;;3.67;0.77;;;5.20;99.90;;;;;;20770716;28;20046;-45
2022/04/02 08:08:33;;;;;;;1.67;0.53;;;5.30;99.90;;;;;;20724597;28;20102;-45
2022/04/02 08:18:34;;;;;;;3.15;0.50;;;5.60;99.90;;;;;;20741614;28;20491;-44
2022/04/02 08:29:11;;;;;;;1.65;0.47;;;5.60;99.90;;;;;;20677055;28;104750;-45
2022/04/02 08:39:29;;;;;;;1.60;0.38;;;5.90;99.90;;;;;;20718334;28;20057;-45
2022/04/02 08:49:34;;;;;;;1.42;0.38;;;5.90;99.90;;;;;;20738474;28;20050;-45
2022/04/02 08:59:41;;;;;;;1.75;0.70;;;6.00;99.90;;;;;;20750214;28;20057;-45
2022/04/02 09:10:00;;;;;;;1.27;0.50;;;6.50;99.90;;;;;;20689687;28;20041;-45
2022/04/02 09:20:08;;;;;;;2.55;0.85;;;7.00;99.90;;;;;;20691558;28;20319;-45
2022/04/02 09:30:28;;;;;;;1.40;0.50;;;7.00;98.70;;;;;;20681021;28;20050;-44
2022/04/02 09:40:45;;;;;;;3.60;0.50;;;7.10;98.20;;;;;;20691907;28;20167;-45
2022/04/02 09:50:49;;;;;;;1.50;0.60;;;7.00;97.70;;;;;;20675090;28;20052;-45
2022/04/02 10:01:12;;;;;;;3.25;0.60;;;6.70;96.90;;;;;;20671756;28;21319;-45
2022/04/02 10:11:18;;;;;;;2.13;0.80;;;6.50;97.60;;;;;;20666422;28;20053;-45
2022/04/02 10:21:20;;;;;;;1.25;0.47;;;6.60;98.00;;;;;;20703625;28;20046;-45
2022/04/02 10:31:36;;;;;;;1.77;0.47;;;6.70;97.20;;;;;;20707797;28;20038;-45
2022/04/02 10:41:39;;;;;;;1.15;0.35;;;7.50;96.90;;;;;;20711593;28;20042;-45
2022/04/02 10:51:42;;;;;;;1.25;0.40;;;7.50;98.70;;;;;;20686570;28;20042;-45
2022/04/02 11:01:46;;;;;;;3.67;0.45;;;7.20;98.70;;;;;;20698679;28;20081;-44
2022/04/02 11:11:47;;;;;;;0.95;0.35;;;6.60;99.90;;;;;;20702246;28;20057;-45
2022/04/02 11:22:21;;;;;;;2.15;0.50;;;6.20;99.90;;;;;;20715227;28;20049;-45
2022/04/02 11:32:25;;;;;;;1.33;0.40;;;6.20;99.90;;;;;;20713582;28;20439;-46
2022/04/02 11:42:27;;;;;;;0.85;0.20;;;7.70;98.80;;;;;;20717905;28;20505;-46
2022/04/02 11:52:28;;;;;;;0.77;0.30;;;7.50;96.90;;;;;;20711430;28;20058;-46
2022/04/02 12:02:40;;;;;;;1.45;0.38;;;7.70;96.00;;;;;;20711397;28;20041;-45
2022/04/02 12:12:49;;;;;;;4.45;0.50;;;7.30;94.80;;;;;;20722292;28;20087;-45
2022/04/02 12:23:14;;;;;;;1.02;0.40;;;7.30;95.70;;;;;;20716728;28;21234;-45
2022/04/02 12:33:22;;;;;;;1.08;0.32;;;7.20;97.00;;;;;;20722841;28;20045;-46
2022/04/02 12:43:29;;;;;;;0.90;0.40;;;7.00;98.50;;;;;;20727425;28;20042;-45
2022/04/02 12:53:39;;;;;;;0.97;0.40;;;7.10;97.50;;;;;;20720095;28;20406;-45
2022/04/02 13:03:54;;;;;;;2.15;0.45;;;7.20;99.70;;;;;;20722018;28;20026;-45
2022/04/02 13:14:03;;;;;;;0.73;0.30;;;7.40;98.00;;;;;;20722429;28;21560;-46
2022/04/02 13:24:24;;;;;;;4.35;0.45;;;7.20;98.50;;;;;;20722755;28;20053;-45
2022/04/02 13:34:36;;;;;;;4.10;0.32;;;7.00;99.60;;;;;;20715670;28;20375;-45
2022/04/02 13:44:44;;;;;;;0.82;0.50;;;7.80;99.50;;;;;;20721257;28;20046;-47
2022/04/02 13:55:00;;;;;;;;;;;8.20;98.00;;;;;;20720077;28;20046;-46
2022/04/02 14:05:03;;;;;;;1.38;0.45;;;7.90;97.30;;;;;;20732600;28;20538;-45
2022/04/02 14:15:11;;;;;;;0.82;0.20;;;8.30;96.90;;;;;;20717462;28;20050;-46
2022/04/02 14:25:28;;;;;;;2.03;0.35;;;7.20;97.80;;;;;;20721419;28;20045;-45
2022/04/02 14:36:15;;;;;;;0.70;0.32;;;6.90;99.90;;;;;;20715353;28;21191;-45
2022/04/02 14:46:42;;;;;;;0.95;0.43;;;7.10;99.30;;;;;;20716737;28;20469;-45
2022/04/02 14:57:04;;;;;;;1.40;0.40;;;6.90;99.90;;;;;;20715325;28;20173;-45
2022/04/02 15:07:53;;;;;;;2.75;0.85;;;6.90;99.90;;;;;;20712829;28;20045;-45
2022/04/02 15:18:04;;;;;;;0.88;0.30;;;6.80;99.90;;;;;;20713016;28;20053;-46
2022/04/02 15:28:08;;;;;;;1.52;0.70;;;6.50;99.90;;;;;;20716945;28;20443;-45
2022/04/02 15:38:24;;;;;;;2.33;0.47;;;6.50;99.90;;;;;;20716479;28;20046;-46
2022/04/02 15:49:03;;;;;;;0.77;0.20;;;6.50;99.00;;;;;;20723756;28;20463;-45
2022/04/02 15:59:11;;;;;;;2.17;0.47;;;6.60;99.40;;;;;;20723958;28;20053;-45
2022/04/02 16:09:35;;;;;;;0.77;0.20;;;6.80;97.60;;;;;;20727950;28;20041;-45
2022/04/02 16:19:48;;;;;;;1.95;0.22;;;6.70;98.50;;;;;;20728008;28;20042;-46
2022/04/02 16:29:56;;;;;;;2.63;0.25;;;6.80;96.00;;;;;;20726499;28;20065;-45
2022/04/02 16:39:57;;;;;;;0.43;0.10;;;6.90;97.50;;;;;;20732810;28;20042;-46
2022/04/02 16:50:00;;;;;;;2.25;0.47;;;7.00;96.00;;;;;;20729615;28;20044;-45
2022/04/02 17:00:12;;;;;;;0.88;0.20;;;6.90;97.40;;;;;;20727936;28;20144;-45
2022/04/02 17:10:29;;;;;;;0.75;0.17;;;6.90;95.70;;;;;;20728562;28;20049;-45
2022/04/02 17:20:31;;;;;;;0.52;0.22;;;6.80;96.00;;;;;;20727500;28;20042;-45
2022/04/02 17:30:34;;;;;;;2.28;0.35;;;6.70;96.90;;;;;;20699119;28;20049;-45
2022/04/02 17:40:36;;;;;;;0.93;0.52;;;6.60;95.30;;;;;;20701801;28;20056;-46
2022/04/02 17:50:48;;;;;;;2.10;0.28;;;6.30;96.20;;;;;;20699116;28;20045;-45
2022/04/02 18:00:54;;;;;;;2.00;0.35;;;6.00;98.10;;;;;;20706120;28;20042;-45
2022/04/02 18:10:55;;;;;;;1.65;0.20;;;5.90;97.60;;;;;;20700421;28;20285;-45
2022/04/02 18:20:58;;;;;;;2.13;0.60;;;6.00;97.70;;;;;;20694567;28;20100;-45
2022/04/02 18:30:59;;;;;;;1.30;0.38;;;5.80;98.30;;;;;;20692194;28;20049;-45
2022/04/02 18:41:00;;;;;;;0.93;0.20;;;5.90;99.20;;;;;;20699662;28;20065;-46
2022/04/02 18:51:02;;;;;;;1.00;0.20;;;5.70;98.10;;;;;;20708003;28;20129;-46
2022/04/02 19:01:03;;;;;;;1.55;0.30;;;5.70;98.10;;;;;;20718104;28;20490;-45
2022/04/02 19:11:04;;;;;;;0.70;0.20;;;5.60;99.50;;;;;;20717082;28;20050;-46
2022/04/02 19:21:05;;;;;;;2.47;0.43;;;5.30;98.60;;;;;;20724482;28;20052;-46
2022/04/02 19:31:07;;;;;;;0.52;0.20;;;5.10;99.10;;;;;;20726896;28;20046;-46
2022/04/02 19:41:10;;;;;;;1.73;0.63;;;4.90;99.90;;;;;;20711262;28;20046;-45
2022/04/02 19:51:11;;;;;;;0.98;0.30;;;4.70;99.90;;;;;;20713524;28;20038;-46
2022/04/02 20:01:12;;;;;;;0.82;0.40;;;4.60;99.90;;;;;;20672632;28;20058;-45
2022/04/02 20:11:13;;;;;;;0.75;0.40;;;4.40;99.90;;;;;;20619246;28;20042;-46
2022/04/02 20:21:18;;;;;;;1.10;0.45;;;4.40;99.90;;;;;;20623749;28;20073;-46
2022/04/02 20:31:19;;;;;;;1.45;0.73;;;4.20;99.90;;;;;;20630872;28;20050;-45
2022/04/02 20:41:20;;;;;;;0.95;0.50;;;4.00;99.90;;;;;;20620809;28;20073;-45
2022/04/02 20:51:21;;;;;;;0.95;0.30;;;3.80;99.90;;;;;;20615942;28;20035;-45
2022/04/02 21:01:22;;;;;;;2.75;0.52;;;3.60;99.90;;;;;;20625454;28;20042;-46
2022/04/02 21:11:23;;;;;;;0.28;0.20;;;3.30;99.90;;;;;;20621246;28;20521;-45
2022/04/02 21:21:26;;;;;;;1.20;0.40;;;3.10;99.90;;;;;;20567703;28;20057;-46
2022/04/02 21:31:32;;;;;;;1.02;0.40;;;3.00;99.90;;;;;;20619533;28;20037;-45
2022/04/02 21:41:34;;;;;;;3.80;1.27;;;2.90;99.90;;;;;;20619057;28;20506;-45
2022/04/02 21:51:35;;;;;;;3.17;0.95;;;2.70;99.90;;;;;;20617820;28;20045;-46
2022/04/02 22:01:59;;;;;;;1.52;0.88;;;2.70;99.90;;;;;;20618288;28;20050;-46
2022/04/02 22:12:00;;;;;;;2.35;0.80;;;2.60;99.90;;;;;;20617701;28;20284;-45
2022/04/02 22:22:04;;;;;;;1.30;0.40;;;2.60;99.90;;;;;;20616203;28;20043;-45
2022/04/02 22:32:05;;;;;;;0.82;0.52;;;2.70;99.90;;;;;;20610797;28;20439;-46
2022/04/02 22:42:08;;;;;;;1.13;0.50;;;2.80;99.90;;;;;;20613244;28;20054;-46
2022/04/02 22:52:09;;;;;;;0.95;0.35;;;2.90;99.90;;;;;;20615258;28;20521;-45
2022/04/02 23:02:11;;;;;;;2.58;0.80;;;2.80;99.90;;;;;;20630947;28;20046;-46
2022/04/02 23:12:12;;;;;;;0.88;0.55;;;2.80;99.90;;;;;;20627935;28;20050;-45
2022/04/02 23:22:13;;;;;;;2.15;0.65;;;2.70;99.90;;;;;;20627902;28;20517;-45
2022/04/02 23:32:17;;;;;;;0.73;0.40;;;2.70;99.90;;;;;;20626517;28;20057;-45
2022/04/02 23:42:18;;;;;;;1.30;0.50;;;2.80;99.90;;;;;;20625647;28;20042;-45
2022/04/02 23:52:20;;;;;;;1.45;0.57;;;2.90;99.90;;;;;;20609248;28;20038;-45
